sensor_id;sensor_type;location;lat;lon;timestamp;temperature;humidity
32400;DHT22;45045;45.440;9.178;2023-03-14T00:02:16;18.90;97.50
32400;DHT22;45045;45.440;9.178;2023-03-14T00:04:41;18.90;97.60
32400;DHT22;45045;45.440;9.178;2023-03-14T00:07:07;18.70;96.90
32400;DHT22;45045;45.440;9.178;2023-03-14T00:09:32;18.70;97.50
32400;DHT22;45045;45.440;9.178;2023-03-14T00:11:58;18.80;97.50
32400;DHT22;45045;45.440;9.178;2023-03-14T00:14:23;18.70;96.70
32400;DHT22;45045;45.440;9.178;2023-03-14T00:16:49;18.50;96.20
32400;DHT22;45045;45.440;9.178;2023-03-14T00:19:14;18.40;97.00
32400;DHT22;45045;45.440;9.178;2023-03-14T00:21:40;18.50;97.30
32400;DHT22;45045;45.440;9.178;2023-03-14T00:24:06;18.60;97.60
32400;DHT22;45045;45.440;9.178;2023-03-14T00:26:31;18.60;97.60
32400;DHT22;45045;45.440;9.178;2023-03-14T00:28:57;18.60;97.70
32400;DHT22;45045;45.440;9.178;2023-03-14T00:31:23;18.60;96.50
32400;DHT22;45045;45.440;9.178;2023-03-14T00:33:51;18.50;97.40
32400;DHT22;45045;45.440;9.178;2023-03-14T00:36:17;18.20;96.70
32400;DHT22;45045;45.440;9.178;2023-03-14T00:38:45;18.20;97.70
32400;DHT22;45045;45.440;9.178;2023-03-14T00:41:12;18.00;97.80
32400;DHT22;45045;45.440;9.178;2023-03-14T00:43:38;18.00;97.70
32400;DHT22;45045;45.440;9.178;2023-03-14T00:46:04;18.10;97.30
32400;DHT22;45045;45.440;9.178;2023-03-14T00:48:29;18.10;97.40
32400;DHT22;45045;45.440;9.178;2023-03-14T00:50:55;18.10;97.80
32400;DHT22;45045;45.440;9.178;2023-03-14T00:53:20;18.20;97.90
32400;DHT22;45045;45.440;9.178;2023-03-14T00:55:46;18.00;97.60
32400;DHT22;45045;45.440;9.178;2023-03-14T00:58:12;18.20;97.90
32400;DHT22;45045;45.440;9.178;2023-03-14T01:00:38;18.00;97.50
32400;DHT22;45045;45.440;9.178;2023-03-14T01:03:04;17.90;97.40
32400;DHT22;45045;45.440;9.178;2023-03-14T01:05:30;17.90;97.80
32400;DHT22;45045;45.440;9.178;2023-03-14T01:07:56;18.00;98.00
32400;DHT22;45045;45.440;9.178;2023-03-14T01:10:21;18.10;97.80
32400;DHT22;45045;45.440;9.178;2023-03-14T01:12:47;18.00;98.10
32400;DHT22;45045;45.440;9.178;2023-03-14T01:15:13;18.10;98.40
32400;DHT22;45045;45.440;9.178;2023-03-14T01:17:38;18.20;97.90
32400;DHT22;45045;45.440;9.178;2023-03-14T01:20:05;18.20;96.80
32400;DHT22;45045;45.440;9.178;2023-03-14T01:22:31;18.20;97.80
32400;DHT22;45045;45.440;9.178;2023-03-14T01:24:57;18.10;96.60
32400;DHT22;45045;45.440;9.178;2023-03-14T01:27:22;17.90;96.30
32400;DHT22;45045;45.440;9.178;2023-03-14T01:29:48;17.90;97.80
32400;DHT22;45045;45.440;9.178;2023-03-14T01:32:13;17.90;97.10
32400;DHT22;45045;45.440;9.178;2023-03-14T01:34:39;17.90;97.30
32400;DHT22;45045;45.440;9.178;2023-03-14T01:37:04;18.00;97.80
32400;DHT22;45045;45.440;9.178;2023-03-14T01:39:30;17.90;96.70
32400;DHT22;45045;45.440;9.178;2023-03-14T01:41:56;18.00;97.10
32400;DHT22;45045;45.440;9.178;2023-03-14T01:44:21;17.90;96.40
32400;DHT22;45045;45.440;9.178;2023-03-14T01:46:47;17.80;96.80
32400;DHT22;45045;45.440;9.178;2023-03-14T01:51:40;17.70;97.70
32400;DHT22;45045;45.440;9.178;2023-03-14T01:54:11;17.70;97.40
32400;DHT22;45045;45.440;9.178;2023-03-14T01:56:37;17.80;97.20
32400;DHT22;45045;45.440;9.178;2023-03-14T01:59:04;17.70;98.30
32400;DHT22;45045;45.440;9.178;2023-03-14T02:01:31;17.80;97.00
32400;DHT22;45045;45.440;9.178;2023-03-14T02:03:58;17.90;96.50
32400;DHT22;45045;45.440;9.178;2023-03-14T02:06:26;17.70;96.20
32400;DHT22;45045;45.440;9.178;2023-03-14T02:08:52;17.80;98.00
32400;DHT22;45045;45.440;9.178;2023-03-14T02:11:18;18.00;97.20
32400;DHT22;45045;45.440;9.178;2023-03-14T02:13:44;17.90;96.30
32400;DHT22;45045;45.440;9.178;2023-03-14T02:16:09;17.70;96.30
32400;DHT22;45045;45.440;9.178;2023-03-14T02:18:35;17.80;96.70
32400;DHT22;45045;45.440;9.178;2023-03-14T02:21:05;17.90;96.70
32400;DHT22;45045;45.440;9.178;2023-03-14T02:23:43;17.90;97.10
32400;DHT22;45045;45.440;9.178;2023-03-14T02:26:14;17.90;96.30
32400;DHT22;45045;45.440;9.178;2023-03-14T02:28:41;17.90;97.20
32400;DHT22;45045;45.440;9.178;2023-03-14T02:31:07;17.90;95.90
32400;DHT22;45045;45.440;9.178;2023-03-14T02:33:33;17.80;95.10
32400;DHT22;45045;45.440;9.178;2023-03-14T02:36:01;17.50;96.30
32400;DHT22;45045;45.440;9.178;2023-03-14T02:40:52;17.50;97.60
32400;DHT22;45045;45.440;9.178;2023-03-14T02:43:18;17.70;97.50
32400;DHT22;45045;45.440;9.178;2023-03-14T02:45:44;17.60;97.00
32400;DHT22;45045;45.440;9.178;2023-03-14T02:48:14;17.70;97.50
32400;DHT22;45045;45.440;9.178;2023-03-14T02:50:41;17.90;97.00
32400;DHT22;45045;45.440;9.178;2023-03-14T02:53:06;17.90;96.80
32400;DHT22;45045;45.440;9.178;2023-03-14T02:55:32;17.70;94.50
32400;DHT22;45045;45.440;9.178;2023-03-14T02:57:57;17.60;96.80
32400;DHT22;45045;45.440;9.178;2023-03-14T03:00:23;17.70;96.70
32400;DHT22;45045;45.440;9.178;2023-03-14T03:02:48;17.80;95.50
32400;DHT22;45045;45.440;9.178;2023-03-14T03:05:14;17.90;96.40
32400;DHT22;45045;45.440;9.178;2023-03-14T03:07:39;17.90;96.40
32400;DHT22;45045;45.440;9.178;2023-03-14T03:10:05;17.80;96.40
32400;DHT22;45045;45.440;9.178;2023-03-14T03:12:31;17.90;96.50
32400;DHT22;45045;45.440;9.178;2023-03-14T03:14:56;17.80;94.20
32400;DHT22;45045;45.440;9.178;2023-03-14T03:17:22;17.70;96.20
32400;DHT22;45045;45.440;9.178;2023-03-14T03:19:47;17.80;96.40
32400;DHT22;45045;45.440;9.178;2023-03-14T03:22:13;17.80;96.00
32400;DHT22;45045;45.440;9.178;2023-03-14T03:24:38;17.80;96.30
32400;DHT22;45045;45.440;9.178;2023-03-14T03:27:04;17.90;96.10
32400;DHT22;45045;45.440;9.178;2023-03-14T03:29:29;17.90;95.30
32400;DHT22;45045;45.440;9.178;2023-03-14T03:31:55;17.90;96.10
32400;DHT22;45045;45.440;9.178;2023-03-14T03:34:20;18.00;96.10
32400;DHT22;45045;45.440;9.178;2023-03-14T03:36:46;18.00;95.80
32400;DHT22;45045;45.440;9.178;2023-03-14T03:39:11;18.00;96.10
32400;DHT22;45045;45.440;9.178;2023-03-14T03:41:37;17.90;95.60
32400;DHT22;45045;45.440;9.178;2023-03-14T03:44:02;17.90;95.20
32400;DHT22;45045;45.440;9.178;2023-03-14T03:46:28;17.90;96.10
32400;DHT22;45045;45.440;9.178;2023-03-14T03:48:54;18.00;95.90
32400;DHT22;45045;45.440;9.178;2023-03-14T03:51:20;18.00;96.00
32400;DHT22;45045;45.440;9.178;2023-03-14T03:53:45;18.00;95.80
32400;DHT22;45045;45.440;9.178;2023-03-14T03:56:11;18.10;95.70
32400;DHT22;45045;45.440;9.178;2023-03-14T03:58:36;18.10;95.60
32400;DHT22;45045;45.440;9.178;2023-03-14T04:01:04;18.10;95.40
32400;DHT22;45045;45.440;9.178;2023-03-14T04:03:30;18.10;95.30
32400;DHT22;45045;45.440;9.178;2023-03-14T04:05:59;18.10;95.70
32400;DHT22;45045;45.440;9.178;2023-03-14T04:08:25;18.10;95.70
32400;DHT22;45045;45.440;9.178;2023-03-14T04:10:53;18.10;96.00
32400;DHT22;45045;45.440;9.178;2023-03-14T04:13:19;18.10;95.60
32400;DHT22;45045;45.440;9.178;2023-03-14T04:15:44;18.10;95.60
32400;DHT22;45045;45.440;9.178;2023-03-14T04:18:10;18.20;95.60
32400;DHT22;45045;45.440;9.178;2023-03-14T04:20:35;18.20;95.60
32400;DHT22;45045;45.440;9.178;2023-03-14T04:23:01;18.20;95.60
32400;DHT22;45045;45.440;9.178;2023-03-14T04:25:26;18.20;95.60
32400;DHT22;45045;45.440;9.178;2023-03-14T04:27:52;18.20;95.60
32400;DHT22;45045;45.440;9.178;2023-03-14T04:30:17;18.20;95.70
32400;DHT22;45045;45.440;9.178;2023-03-14T04:32:43;18.20;95.70
32400;DHT22;45045;45.440;9.178;2023-03-14T04:35:08;18.20;95.60
32400;DHT22;45045;45.440;9.178;2023-03-14T04:37:34;18.20;95.80
32400;DHT22;45045;45.440;9.178;2023-03-14T04:39:59;18.20;95.80
32400;DHT22;45045;45.440;9.178;2023-03-14T04:42:25;18.20;95.80
32400;DHT22;45045;45.440;9.178;2023-03-14T04:44:50;18.20;95.80
32400;DHT22;45045;45.440;9.178;2023-03-14T04:47:16;18.10;95.70
32400;DHT22;45045;45.440;9.178;2023-03-14T04:49:41;18.10;96.00
32400;DHT22;45045;45.440;9.178;2023-03-14T04:52:07;18.10;96.00
32400;DHT22;45045;45.440;9.178;2023-03-14T04:54:32;18.10;96.10
32400;DHT22;45045;45.440;9.178;2023-03-14T04:56:58;18.00;96.00
32400;DHT22;45045;45.440;9.178;2023-03-14T04:59:24;17.90;96.20
32400;DHT22;45045;45.440;9.178;2023-03-14T05:01:49;17.80;96.60
32400;DHT22;45045;45.440;9.178;2023-03-14T05:04:15;17.70;96.80
32400;DHT22;45045;45.440;9.178;2023-03-14T05:06:40;17.60;97.10
32400;DHT22;45045;45.440;9.178;2023-03-14T05:09:07;17.60;97.10
32400;DHT22;45045;45.440;9.178;2023-03-14T05:11:33;17.40;97.60
32400;DHT22;45045;45.440;9.178;2023-03-14T05:13:58;17.50;97.90
32400;DHT22;45045;45.440;9.178;2023-03-14T05:16:24;17.60;97.70
32400;DHT22;45045;45.440;9.178;2023-03-14T05:18:49;17.70;97.40
32400;DHT22;45045;45.440;9.178;2023-03-14T05:21:15;17.80;97.00
32400;DHT22;45045;45.440;9.178;2023-03-14T05:23:41;17.80;97.00
32400;DHT22;45045;45.440;9.178;2023-03-14T05:26:06;17.70;97.40
32400;DHT22;45045;45.440;9.178;2023-03-14T05:28:32;17.60;97.30
32400;DHT22;45045;45.440;9.178;2023-03-14T05:30:57;17.60;97.50
32400;DHT22;45045;45.440;9.178;2023-03-14T05:33:23;17.70;97.60
32400;DHT22;45045;45.440;9.178;2023-03-14T05:35:48;17.80;97.20
32400;DHT22;45045;45.440;9.178;2023-03-14T05:38:14;17.80;97.40
32400;DHT22;45045;45.440;9.178;2023-03-14T05:40:39;17.80;97.30
32400;DHT22;45045;45.440;9.178;2023-03-14T05:43:05;17.80;97.30
32400;DHT22;45045;45.440;9.178;2023-03-14T05:45:33;17.90;97.00
32400;DHT22;45045;45.440;9.178;2023-03-14T05:47:59;17.90;97.20
32400;DHT22;45045;45.440;9.178;2023-03-14T05:50:24;17.90;97.20
32400;DHT22;45045;45.440;9.178;2023-03-14T05:52:50;17.90;97.10
32400;DHT22;45045;45.440;9.178;2023-03-14T05:55:15;17.90;97.10
32400;DHT22;45045;45.440;9.178;2023-03-14T05:57:41;17.90;97.10
32400;DHT22;45045;45.440;9.178;2023-03-14T06:00:06;17.90;97.10
32400;DHT22;45045;45.440;9.178;2023-03-14T06:02:32;17.90;97.20
32400;DHT22;45045;45.440;9.178;2023-03-14T06:04:58;17.90;97.20
32400;DHT22;45045;45.440;9.178;2023-03-14T06:07:23;17.10;97.20
32400;DHT22;45045;45.440;9.178;2023-03-14T06:09:49;15.90;99.90
32400;DHT22;45045;45.440;9.178;2023-03-14T06:12:14;15.20;99.90
32400;DHT22;45045;45.440;9.178;2023-03-14T06:14:40;14.70;99.90
32400;DHT22;45045;45.440;9.178;2023-03-14T06:17:05;14.50;99.90
32400;DHT22;45045;45.440;9.178;2023-03-14T06:19:31;14.20;99.90
32400;DHT22;45045;45.440;9.178;2023-03-14T06:21:56;14.00;99.90
32400;DHT22;45045;45.440;9.178;2023-03-14T06:24:22;14.40;99.90
32400;DHT22;45045;45.440;9.178;2023-03-14T06:26:47;15.00;99.90
32400;DHT22;45045;45.440;9.178;2023-03-14T06:29:13;15.90;99.90
32400;DHT22;45045;45.440;9.178;2023-03-14T06:31:38;16.40;99.90
32400;DHT22;45045;45.440;9.178;2023-03-14T06:34:04;16.80;99.90
32400;DHT22;45045;45.440;9.178;2023-03-14T06:36:29;17.10;99.90
32400;DHT22;45045;45.440;9.178;2023-03-14T06:38:55;16.90;99.90
32400;DHT22;45045;45.440;9.178;2023-03-14T06:41:20;17.00;99.90
32400;DHT22;45045;45.440;9.178;2023-03-14T06:43:49;16.90;99.90
32400;DHT22;45045;45.440;9.178;2023-03-14T06:46:14;17.00;99.90
32400;DHT22;45045;45.440;9.178;2023-03-14T06:48:40;17.10;99.90
32400;DHT22;45045;45.440;9.178;2023-03-14T06:51:06;17.20;99.90
32400;DHT22;45045;45.440;9.178;2023-03-14T06:53:32;17.20;99.90
32400;DHT22;45045;45.440;9.178;2023-03-14T06:55:57;16.40;99.90
32400;DHT22;45045;45.440;9.178;2023-03-14T06:58:23;15.90;99.90
32400;DHT22;45045;45.440;9.178;2023-03-14T07:00:48;16.20;99.90
32400;DHT22;45045;45.440;9.178;2023-03-14T07:03:14;15.90;99.90
32400;DHT22;45045;45.440;9.178;2023-03-14T07:05:39;15.40;99.90
32400;DHT22;45045;45.440;9.178;2023-03-14T07:08:06;15.90;99.90
32400;DHT22;45045;45.440;9.178;2023-03-14T07:10:31;16.20;99.90
32400;DHT22;45045;45.440;9.178;2023-03-14T07:12:57;16.00;99.90
32400;DHT22;45045;45.440;9.178;2023-03-14T07:15:22;16.20;99.90
32400;DHT22;45045;45.440;9.178;2023-03-14T07:17:48;16.60;99.90
32400;DHT22;45045;45.440;9.178;2023-03-14T07:20:13;16.60;99.90
32400;DHT22;45045;45.440;9.178;2023-03-14T07:22:39;16.90;99.90
32400;DHT22;45045;45.440;9.178;2023-03-14T07:25:04;17.20;99.90
32400;DHT22;45045;45.440;9.178;2023-03-14T07:27:30;17.10;99.90
32400;DHT22;45045;45.440;9.178;2023-03-14T07:29:56;17.20;99.90
32400;DHT22;45045;45.440;9.178;2023-03-14T07:32:21;17.20;99.90
32400;DHT22;45045;45.440;9.178;2023-03-14T07:34:47;17.40;99.90
32400;DHT22;45045;45.440;9.178;2023-03-14T07:37:12;17.50;99.90
32400;DHT22;45045;45.440;9.178;2023-03-14T07:39:38;17.50;99.90
32400;DHT22;45045;45.440;9.178;2023-03-14T07:42:04;17.60;99.90
32400;DHT22;45045;45.440;9.178;2023-03-14T07:44:30;17.70;99.90
32400;DHT22;45045;45.440;9.178;2023-03-14T07:46:55;17.70;99.90
32400;DHT22;45045;45.440;9.178;2023-03-14T07:49:21;17.80;99.90
32400;DHT22;45045;45.440;9.178;2023-03-14T07:51:49;17.80;99.90
32400;DHT22;45045;45.440;9.178;2023-03-14T07:54:15;17.70;99.90
32400;DHT22;45045;45.440;9.178;2023-03-14T07:56:41;17.70;99.90
32400;DHT22;45045;45.440;9.178;2023-03-14T07:59:06;17.50;99.90
32400;DHT22;45045;45.440;9.178;2023-03-14T08:01:32;17.60;99.90
32400;DHT22;45045;45.440;9.178;2023-03-14T08:03:58;17.60;99.90
32400;DHT22;45045;45.440;9.178;2023-03-14T08:06:24;17.50;99.90
32400;DHT22;45045;45.440;9.178;2023-03-14T08:08:49;17.50;99.90
32400;DHT22;45045;45.440;9.178;2023-03-14T08:11:15;17.50;99.90
32400;DHT22;45045;45.440;9.178;2023-03-14T08:13:40;17.10;99.90
32400;DHT22;45045;45.440;9.178;2023-03-14T08:16:06;17.30;99.90
32400;DHT22;45045;45.440;9.178;2023-03-14T08:18:32;17.50;99.90
32400;DHT22;45045;45.440;9.178;2023-03-14T08:20:57;17.60;99.90
32400;DHT22;45045;45.440;9.178;2023-03-14T08:23:23;17.70;99.90
32400;DHT22;45045;45.440;9.178;2023-03-14T08:25:49;17.80;99.90
32400;DHT22;45045;45.440;9.178;2023-03-14T08:28:15;17.80;99.90
32400;DHT22;45045;45.440;9.178;2023-03-14T08:30:41;17.70;99.90
32400;DHT22;45045;45.440;9.178;2023-03-14T08:33:06;17.80;99.90
32400;DHT22;45045;45.440;9.178;2023-03-14T08:35:32;17.90;99.90
32400;DHT22;45045;45.440;9.178;2023-03-14T08:37:57;18.10;99.90
32400;DHT22;45045;45.440;9.178;2023-03-14T08:40:23;18.20;99.90
32400;DHT22;45045;45.440;9.178;2023-03-14T08:42:48;18.20;99.90
32400;DHT22;45045;45.440;9.178;2023-03-14T08:45:14;18.20;99.90
32400;DHT22;45045;45.440;9.178;2023-03-14T08:47:41;18.30;99.90
32400;DHT22;45045;45.440;9.178;2023-03-14T08:50:07;18.30;99.90
32400;DHT22;45045;45.440;9.178;2023-03-14T08:52:34;18.30;99.90
32400;DHT22;45045;45.440;9.178;2023-03-14T08:55:00;18.30;99.90
32400;DHT22;45045;45.440;9.178;2023-03-14T08:57:26;18.40;99.90
32400;DHT22;45045;45.440;9.178;2023-03-14T08:59:54;18.40;99.90
32400;DHT22;45045;45.440;9.178;2023-03-14T09:02:21;18.60;99.90
32400;DHT22;45045;45.440;9.178;2023-03-14T09:04:46;18.60;99.90
32400;DHT22;45045;45.440;9.178;2023-03-14T09:07:12;18.70;99.90
32400;DHT22;45045;45.440;9.178;2023-03-14T09:09:37;18.80;99.90
32400;DHT22;45045;45.440;9.178;2023-03-14T09:12:03;19.00;99.90
32400;DHT22;45045;45.440;9.178;2023-03-14T09:14:30;19.00;99.90
32400;DHT22;45045;45.440;9.178;2023-03-14T09:16:55;18.90;99.90
32400;DHT22;45045;45.440;9.178;2023-03-14T09:19:21;19.00;99.90
32400;DHT22;45045;45.440;9.178;2023-03-14T09:21:46;18.90;99.90
32400;DHT22;45045;45.440;9.178;2023-03-14T09:24:12;18.90;99.90
32400;DHT22;45045;45.440;9.178;2023-03-14T09:26:38;18.90;99.90
32400;DHT22;45045;45.440;9.178;2023-03-14T09:29:03;18.90;99.90
32400;DHT22;45045;45.440;9.178;2023-03-14T09:31:29;18.90;99.90
32400;DHT22;45045;45.440;9.178;2023-03-14T09:33:55;18.90;99.90
32400;DHT22;45045;45.440;9.178;2023-03-14T09:36:20;18.80;99.90
32400;DHT22;45045;45.440;9.178;2023-03-14T09:38:46;18.80;99.90
32400;DHT22;45045;45.440;9.178;2023-03-14T09:41:18;18.80;99.90
32400;DHT22;45045;45.440;9.178;2023-03-14T09:43:46;18.90;99.90
32400;DHT22;45045;45.440;9.178;2023-03-14T09:46:16;18.90;99.90
32400;DHT22;45045;45.440;9.178;2023-03-14T09:48:42;18.90;98.60
32400;DHT22;45045;45.440;9.178;2023-03-14T09:51:12;18.80;99.80
32400;DHT22;45045;45.440;9.178;2023-03-14T09:53:44;18.90;99.20
32400;DHT22;45045;45.440;9.178;2023-03-14T09:56:11;18.90;99.40
32400;DHT22;45045;45.440;9.178;2023-03-14T09:58:37;18.80;99.60
32400;DHT22;45045;45.440;9.178;2023-03-14T10:01:07;18.70;98.40
32400;DHT22;45045;45.440;9.178;2023-03-14T10:03:34;18.50;99.10
32400;DHT22;45045;45.440;9.178;2023-03-14T10:06:00;18.70;99.90
32400;DHT22;45045;45.440;9.178;2023-03-14T10:08:26;18.70;99.60
32400;DHT22;45045;45.440;9.178;2023-03-14T10:10:52;18.70;99.10
32400;DHT22;45045;45.440;9.178;2023-03-14T10:13:23;18.70;99.90
32400;DHT22;45045;45.440;9.178;2023-03-14T10:15:52;18.90;99.90
32400;DHT22;45045;45.440;9.178;2023-03-14T10:18:18;19.00;99.90
32400;DHT22;45045;45.440;9.178;2023-03-14T10:20:45;19.30;98.90
32400;DHT22;45045;45.440;9.178;2023-03-14T10:25:37;19.80;98.30
32400;DHT22;45045;45.440;9.178;2023-03-14T10:28:04;19.70;98.10
32400;DHT22;45045;45.440;9.178;2023-03-14T10:30:33;19.80;98.30
32400;DHT22;45045;45.440;9.178;2023-03-14T10:33:07;20.00;97.60
32400;DHT22;45045;45.440;9.178;2023-03-14T10:35:33;20.00;97.10
32400;DHT22;45045;45.440;9.178;2023-03-14T10:38:02;20.00;97.20
32400;DHT22;45045;45.440;9.178;2023-03-14T10:40:30;20.00;96.70
32400;DHT22;45045;45.440;9.178;2023-03-14T10:42:59;20.10;96.60
32400;DHT22;45045;45.440;9.178;2023-03-14T10:45:29;19.90;97.10
32400;DHT22;45045;45.440;9.178;2023-03-14T10:47:59;20.00;97.10
32400;DHT22;45045;45.440;9.178;2023-03-14T10:50:26;20.10;96.70
32400;DHT22;45045;45.440;9.178;2023-03-14T10:52:52;20.00;97.00
32400;DHT22;45045;45.440;9.178;2023-03-14T10:55:18;20.00;95.90
32400;DHT22;45045;45.440;9.178;2023-03-14T10:57:44;20.70;94.70
32400;DHT22;45045;45.440;9.178;2023-03-14T11:00:19;21.20;92.80
32400;DHT22;45045;45.440;9.178;2023-03-14T11:02:47;21.50;92.30
32400;DHT22;45045;45.440;9.178;2023-03-14T11:07:43;21.50;90.70
32400;DHT22;45045;45.440;9.178;2023-03-14T11:15:17;20.60;91.90
32400;DHT22;45045;45.440;9.178;2023-03-14T11:20:34;20.10;92.00
32400;DHT22;45045;45.440;9.178;2023-03-14T11:28:01;20.00;93.00
32400;DHT22;45045;45.440;9.178;2023-03-14T11:31:12;20.40;92.60
32400;DHT22;45045;45.440;9.178;2023-03-14T11:33:31;20.80;91.80
32400;DHT22;45045;45.440;9.178;2023-03-14T11:35:59;20.80;91.60
32400;DHT22;45045;45.440;9.178;2023-03-14T11:38:33;21.00;91.40
32400;DHT22;45045;45.440;9.178;2023-03-14T11:41:00;20.90;91.00
32400;DHT22;45045;45.440;9.178;2023-03-14T11:43:34;20.40;90.90
32400;DHT22;45045;45.440;9.178;2023-03-14T11:46:07;20.20;91.60
32400;DHT22;45045;45.440;9.178;2023-03-14T11:50:59;20.50;93.30
32400;DHT22;45045;45.440;9.178;2023-03-14T11:55:55;22.30;87.70
32400;DHT22;45045;45.440;9.178;2023-03-14T11:58:23;22.50;86.30
32400;DHT22;45045;45.440;9.178;2023-03-14T12:00:51;22.70;85.30
32400;DHT22;45045;45.440;9.178;2023-03-14T12:03:24;23.00;83.10
32400;DHT22;45045;45.440;9.178;2023-03-14T12:06:02;23.20;82.90
32400;DHT22;45045;45.440;9.178;2023-03-14T12:11:03;23.40;81.00
32400;DHT22;45045;45.440;9.178;2023-03-14T12:13:33;23.60;80.60
32400;DHT22;45045;45.440;9.178;2023-03-14T12:15:59;23.60;79.90
32400;DHT22;45045;45.440;9.178;2023-03-14T12:20:51;24.00;77.60
32400;DHT22;45045;45.440;9.178;2023-03-14T12:23:18;23.80;76.40
32400;DHT22;45045;45.440;9.178;2023-03-14T12:25:44;23.60;77.80
32400;DHT22;45045;45.440;9.178;2023-03-14T12:28:29;23.50;76.90
32400;DHT22;45045;45.440;9.178;2023-03-14T12:31:35;23.50;77.30
32400;DHT22;45045;45.440;9.178;2023-03-14T12:33:44;23.70;77.30
32400;DHT22;45045;45.440;9.178;2023-03-14T12:36:11;23.80;75.50
32400;DHT22;45045;45.440;9.178;2023-03-14T12:43:37;23.80;80.50
32400;DHT22;45045;45.440;9.178;2023-03-14T12:48:54;24.10;81.30
32400;DHT22;45045;45.440;9.178;2023-03-14T12:51:20;23.90;84.60
32400;DHT22;45045;45.440;9.178;2023-03-14T13:01:30;23.50;87.50
32400;DHT22;45045;45.440;9.178;2023-03-14T13:03:58;23.30;92.70
32400;DHT22;45045;45.440;9.178;2023-03-14T13:11:53;22.80;86.70
32400;DHT22;45045;45.440;9.178;2023-03-14T13:14:19;22.50;86.00
32400;DHT22;45045;45.440;9.178;2023-03-14T13:16:46;22.50;86.20
32400;DHT22;45045;45.440;9.178;2023-03-14T13:19:25;22.30;89.50
32400;DHT22;45045;45.440;9.178;2023-03-14T13:21:55;22.40;91.60
32400;DHT22;45045;45.440;9.178;2023-03-14T13:24:25;22.60;93.80
32400;DHT22;45045;45.440;9.178;2023-03-14T13:26:54;22.70;94.70
32400;DHT22;45045;45.440;9.178;2023-03-14T13:29:27;22.70;93.20
32400;DHT22;45045;45.440;9.178;2023-03-14T13:31:54;22.80;94.70
32400;DHT22;45045;45.440;9.178;2023-03-14T13:34:24;22.70;95.20
32400;DHT22;45045;45.440;9.178;2023-03-14T13:36:51;22.70;93.70
32400;DHT22;45045;45.440;9.178;2023-03-14T13:39:18;22.70;95.70
32400;DHT22;45045;45.440;9.178;2023-03-14T13:41:44;22.60;96.10
32400;DHT22;45045;45.440;9.178;2023-03-14T13:44:15;22.50;91.60
32400;DHT22;45045;45.440;9.178;2023-03-14T13:46:41;22.20;90.20
32400;DHT22;45045;45.440;9.178;2023-03-14T13:49:09;21.60;90.70
32400;DHT22;45045;45.440;9.178;2023-03-14T13:51:36;21.30;91.70
32400;DHT22;45045;45.440;9.178;2023-03-14T13:54:03;21.20;92.00
32400;DHT22;45045;45.440;9.178;2023-03-14T13:56:30;21.10;91.50
32400;DHT22;45045;45.440;9.178;2023-03-14T13:58:55;21.10;92.00
32400;DHT22;45045;45.440;9.178;2023-03-14T14:03:48;20.80;91.60
32400;DHT22;45045;45.440;9.178;2023-03-14T14:08:45;20.80;91.70
32400;DHT22;45045;45.440;9.178;2023-03-14T14:11:15;20.70;91.60
32400;DHT22;45045;45.440;9.178;2023-03-14T14:13:42;20.50;91.90
32400;DHT22;45045;45.440;9.178;2023-03-14T14:16:08;20.50;91.80
32400;DHT22;45045;45.440;9.178;2023-03-14T14:18:34;20.20;92.50
32400;DHT22;45045;45.440;9.178;2023-03-14T14:21:00;20.20;92.90
32400;DHT22;45045;45.440;9.178;2023-03-14T14:23:26;20.20;91.80
32400;DHT22;45045;45.440;9.178;2023-03-14T14:25:54;20.20;91.60
32400;DHT22;45045;45.440;9.178;2023-03-14T14:28:25;20.20;91.60
32400;DHT22;45045;45.440;9.178;2023-03-14T14:31:37;19.90;91.90
32400;DHT22;45045;45.440;9.178;2023-03-14T14:33:39;20.00;91.60
32400;DHT22;45045;45.440;9.178;2023-03-14T14:36:11;19.80;92.20
32400;DHT22;45045;45.440;9.178;2023-03-14T14:38:37;19.80;92.50
32400;DHT22;45045;45.440;9.178;2023-03-14T14:41:03;20.00;92.30
32400;DHT22;45045;45.440;9.178;2023-03-14T14:43:30;19.90;92.30
32400;DHT22;45045;45.440;9.178;2023-03-14T14:45:56;19.80;92.70
32400;DHT22;45045;45.440;9.178;2023-03-14T14:48:24;20.00;92.60
32400;DHT22;45045;45.440;9.178;2023-03-14T14:50:52;20.00;92.70
32400;DHT22;45045;45.440;9.178;2023-03-14T14:53:31;20.00;92.90
32400;DHT22;45045;45.440;9.178;2023-03-14T14:56:03;19.90;92.70
32400;DHT22;45045;45.440;9.178;2023-03-14T14:58:34;19.80;93.20
32400;DHT22;45045;45.440;9.178;2023-03-14T15:03:29;20.10;93.30
32400;DHT22;45045;45.440;9.178;2023-03-14T15:05:55;20.10;93.20
32400;DHT22;45045;45.440;9.178;2023-03-14T15:08:21;19.90;93.10
32400;DHT22;45045;45.440;9.178;2023-03-14T15:10:47;19.80;93.30
32400;DHT22;45045;45.440;9.178;2023-03-14T15:13:12;19.80;92.70
32400;DHT22;45045;45.440;9.178;2023-03-14T15:15:38;19.70;93.40
32400;DHT22;45045;45.440;9.178;2023-03-14T15:18:08;19.80;93.00
32400;DHT22;45045;45.440;9.178;2023-03-14T15:20:35;19.80;93.10
32400;DHT22;45045;45.440;9.178;2023-03-14T15:23:01;19.50;93.70
32400;DHT22;45045;45.440;9.178;2023-03-14T15:25:26;19.40;94.20
32400;DHT22;45045;45.440;9.178;2023-03-14T15:27:52;19.30;95.00
32400;DHT22;45045;45.440;9.178;2023-03-14T15:30:17;19.30;95.30
32400;DHT22;45045;45.440;9.178;2023-03-14T15:32:43;19.30;95.50
32400;DHT22;45045;45.440;9.178;2023-03-14T15:35:09;19.40;95.60
32400;DHT22;45045;45.440;9.178;2023-03-14T15:37:35;19.40;94.60
32400;DHT22;45045;45.440;9.178;2023-03-14T15:40:01;19.40;95.00
32400;DHT22;45045;45.440;9.178;2023-03-14T15:42:28;19.30;95.70
32400;DHT22;45045;45.440;9.178;2023-03-14T15:44:53;19.10;96.20
32400;DHT22;45045;45.440;9.178;2023-03-14T15:47:19;19.10;96.50
32400;DHT22;45045;45.440;9.178;2023-03-14T15:49:44;19.00;96.90
32400;DHT22;45045;45.440;9.178;2023-03-14T15:52:10;19.00;97.30
32400;DHT22;45045;45.440;9.178;2023-03-14T15:54:35;19.00;97.40
32400;DHT22;45045;45.440;9.178;2023-03-14T15:57:01;19.10;97.40
32400;DHT22;45045;45.440;9.178;2023-03-14T15:59:26;18.90;97.90
32400;DHT22;45045;45.440;9.178;2023-03-14T16:01:52;18.80;98.40
32400;DHT22;45045;45.440;9.178;2023-03-14T16:04:17;18.70;98.90
32400;DHT22;45045;45.440;9.178;2023-03-14T16:06:44;18.50;99.20
32400;DHT22;45045;45.440;9.178;2023-03-14T16:09:13;18.60;99.20
32400;DHT22;45045;45.440;9.178;2023-03-14T16:11:38;18.50;99.60
32400;DHT22;45045;45.440;9.178;2023-03-14T16:14:04;18.60;99.60
32400;DHT22;45045;45.440;9.178;2023-03-14T16:16:29;18.40;99.90
32400;DHT22;45045;45.440;9.178;2023-03-14T16:18:55;18.40;99.90
32400;DHT22;45045;45.440;9.178;2023-03-14T16:21:21;18.40;99.90
32400;DHT22;45045;45.440;9.178;2023-03-14T16:23:47;18.50;99.90
32400;DHT22;45045;45.440;9.178;2023-03-14T16:26:14;18.40;99.90
32400;DHT22;45045;45.440;9.178;2023-03-14T16:28:40;18.40;99.90